Time;durP1;ratioP1;P1;durP2;ratioP2;P2;SDS_P1;SDS_P2;PMS_P1;PMS_P2;Temp;Humidity;BMP_temperature;BMP_pressure;BME280_temperature;BME280_humidity;BME280_pressure;Samples;Min_cycle;Max_cycle;Signal;HPM_P1;HPM_P2
2021/03/11 00:00:07;;;;;;;28.50;17.42;;;6.30;99.90;;;;;;5008746;28;20017;-62
2021/03/11 00:02:32;;;;;;;33.40;18.48;;;6.30;99.90;;;;;;5013465;28;20105;-61
2021/03/11 00:04:58;;;;;;;35.15;18.85;;;6.30;99.90;;;;;;5022577;28;20172;-60
2021/03/11 00:07:23;;;;;;;36.97;18.35;;;6.30;99.90;;;;;;4999417;28;20040;-60
2021/03/11 00:09:49;;;;;;;30.63;17.40;;;6.30;99.90;;;;;;5011274;28;20085;-59
2021/03/11 00:12:15;;;;;;;33.15;19.10;;;6.30;99.90;;;;;;5015440;28;20042;-60
2021/03/11 00:14:40;;;;;;;31.75;20.02;;;6.30;99.90;;;;;;5020721;28;20025;-59
2021/03/11 00:17:07;;;;;;;38.08;18.08;;;6.30;99.90;;;;;;5010129;28;20029;-59
2021/03/11 00:19:33;;;;;;;31.77;17.75;;;6.30;99.90;;;;;;5022025;28;20054;-58
2021/03/11 00:22:00;;;;;;;32.70;17.67;;;6.30;99.90;;;;;;5018663;28;20105;-60
2021/03/11 00:24:26;;;;;;;29.98;18.45;;;6.30;99.90;;;;;;5019027;28;20072;-58
2021/03/11 00:26:52;;;;;;;29.70;18.60;;;6.30;99.90;;;;;;5016493;28;20455;-60
2021/03/11 00:29:17;;;;;;;30.88;17.23;;;6.30;99.90;;;;;;5017141;28;20030;-60
2021/03/11 00:31:43;;;;;;;32.58;17.40;;;6.30;99.90;;;;;;5013366;28;20036;-60
2021/03/11 00:34:09;;;;;;;40.40;18.52;;;6.30;99.90;;;;;;5008273;28;20029;-60
2021/03/11 00:36:35;;;;;;;27.98;16.67;;;6.30;99.90;;;;;;4990460;28;20034;-59
2021/03/11 00:39:02;;;;;;;30.73;16.60;;;6.40;99.90;;;;;;4994047;28;20144;-61
2021/03/11 00:41:28;;;;;;;30.02;16.67;;;6.40;99.90;;;;;;5025431;28;20049;-60
2021/03/11 00:43:53;;;;;;;27.20;16.48;;;6.40;99.90;;;;;;5016612;28;20065;-61
2021/03/11 00:46:20;;;;;;;30.77;18.08;;;6.40;99.90;;;;;;4998382;28;20191;-58
2021/03/11 00:48:46;;;;;;;26.48;15.18;;;6.40;99.90;;;;;;5009290;28;20030;-61
2021/03/11 00:51:11;;;;;;;25.50;15.90;;;6.40;99.90;;;;;;5014521;28;20036;-61
2021/03/11 00:53:37;;;;;;;26.85;15.70;;;6.40;99.90;;;;;;5024273;28;20105;-60
2021/03/11 00:56:02;;;;;;;26.20;15.68;;;6.40;99.90;;;;;;5012965;28;20877;-61
2021/03/11 00:58:28;;;;;;;25.50;15.10;;;6.40;99.90;;;;;;5024333;28;20418;-60
2021/03/11 01:00:54;;;;;;;32.70;16.85;;;6.40;99.90;;;;;;5013501;28;20542;-60
2021/03/11 01:03:20;;;;;;;24.70;15.15;;;6.40;99.90;;;;;;5014722;28;20080;-61
2021/03/11 01:05:46;;;;;;;24.10;13.73;;;6.40;99.90;;;;;;4991562;28;20033;-60
2021/03/11 01:08:11;;;;;;;29.75;16.45;;;6.50;99.90;;;;;;5011455;28;20033;-60
2021/03/11 01:10:38;;;;;;;25.75;14.57;;;6.50;99.90;;;;;;5011403;28;20037;-61
2021/03/11 01:13:04;;;;;;;28.23;15.45;;;6.50;99.90;;;;;;5014753;28;20022;-61
2021/03/11 01:15:42;;;;;;;24.48;13.93;;;6.50;99.90;;;;;;5018364;28;20164;-61
2021/03/11 01:18:09;;;;;;;25.95;15.02;;;6.50;99.90;;;;;;5014535;28;20068;-63
2021/03/11 01:20:35;;;;;;;24.90;14.13;;;6.50;99.90;;;;;;5013869;28;20072;-61
2021/03/11 01:23:01;;;;;;;32.90;15.80;;;6.50;99.90;;;;;;5004039;28;20512;-61
2021/03/11 01:25:27;;;;;;;26.63;14.20;;;6.50;99.90;;;;;;5008869;28;20030;-60
2021/03/11 01:27:52;;;;;;;25.92;14.60;;;6.50;99.90;;;;;;5014153;28;20017;-60
2021/03/11 01:30:19;;;;;;;27.27;13.52;;;6.50;99.90;;;;;;5000623;28;20049;-60
2021/03/11 01:32:44;;;;;;;22.58;13.30;;;6.60;99.90;;;;;;5008961;28;20026;-60
2021/03/11 01:35:10;;;;;;;23.73;13.57;;;6.60;99.90;;;;;;5009003;28;20075;-59
2021/03/11 01:37:36;;;;;;;24.52;13.25;;;6.60;99.90;;;;;;4994146;28;20039;-60
2021/03/11 01:40:03;;;;;;;23.77;13.38;;;6.60;99.90;;;;;;5003233;28;20033;-60
2021/03/11 01:42:29;;;;;;;21.40;12.20;;;6.60;99.90;;;;;;5018019;28;20034;-61
2021/03/11 01:44:55;;;;;;;24.50;13.07;;;6.60;99.90;;;;;;5010729;28;20026;-60
2021/03/11 01:47:20;;;;;;;21.52;12.15;;;6.60;99.90;;;;;;5003423;28;20026;-58
2021/03/11 01:49:46;;;;;;;23.23;13.23;;;6.60;99.90;;;;;;5002961;28;20388;-60
2021/03/11 01:52:12;;;;;;;22.60;11.57;;;6.70;99.90;;;;;;5010178;28;20025;-61
2021/03/11 01:54:38;;;;;;;19.05;11.13;;;6.70;99.90;;;;;;5033080;28;20042;-58
2021/03/11 01:57:04;;;;;;;20.65;11.65;;;6.80;99.90;;;;;;5014555;28;20022;-60
2021/03/11 01:59:29;;;;;;;18.98;10.73;;;6.90;99.90;;;;;;5014402;28;20030;-60
2021/03/11 02:01:58;;;;;;;19.75;11.30;;;6.90;99.90;;;;;;5006489;28;20029;-60
2021/03/11 02:04:24;;;;;;;17.27;10.27;;;7.00;99.90;;;;;;5020195;28;20026;-60
2021/03/11 02:06:51;;;;;;;18.00;10.77;;;7.00;99.90;;;;;;5019232;28;20095;-61
2021/03/11 02:09:17;;;;;;;16.27;9.65;;;7.10;99.90;;;;;;5007691;28;20105;-61
2021/03/11 02:11:51;;;;;;;16.05;10.00;;;7.10;99.90;;;;;;5012811;28;20112;-59
2021/03/11 02:14:38;;;;;;;17.27;9.27;;;7.10;99.90;;;;;;5015980;28;20036;-60
2021/03/11 02:17:05;;;;;;;16.23;9.43;;;7.10;99.90;;;;;;5000857;28;20492;-60
2021/03/11 02:20:00;;;;;;;16.27;9.23;;;7.10;99.90;;;;;;5004558;28;20117;-60
2021/03/11 02:22:35;;;;;;;14.18;8.40;;;7.10;99.90;;;;;;5021761;28;20551;-61
2021/03/11 02:25:23;;;;;;;15.48;8.25;;;7.20;99.90;;;;;;5005367;28;20033;-57
2021/03/11 02:28:20;;;;;;;12.13;7.10;;;7.20;99.90;;;;;;5004782;28;20029;-60
2021/03/11 02:30:46;;;;;;;11.15;6.57;;;7.20;99.90;;;;;;5003106;28;20473;-60
2021/03/11 02:33:13;;;;;;;10.27;6.40;;;7.30;99.90;;;;;;5008226;28;20156;-60
2021/03/11 02:35:41;;;;;;;11.50;6.60;;;7.30;99.90;;;;;;5016424;28;20033;-59
2021/03/11 02:38:07;;;;;;;14.93;7.18;;;7.30;99.90;;;;;;4979789;28;20050;-61
2021/03/11 02:40:35;;;;;;;13.50;7.88;;;7.30;99.90;;;;;;5018804;28;20030;-59
2021/03/11 02:43:04;;;;;;;13.18;7.10;;;7.20;99.90;;;;;;5012526;28;20025;-59
2021/03/11 02:45:33;;;;;;;9.85;5.80;;;7.30;99.90;;;;;;5012854;28;20133;-60
2021/03/11 02:48:02;;;;;;;8.68;6.18;;;7.30;99.90;;;;;;5009436;28;20033;-61
2021/03/11 02:50:28;;;;;;;9.30;5.80;;;7.30;99.90;;;;;;5004406;28;20412;-61
2021/03/11 02:52:56;;;;;;;10.10;6.32;;;7.30;99.90;;;;;;5006175;28;20119;-60
2021/03/11 02:55:23;;;;;;;10.32;6.25;;;7.40;99.90;;;;;;5011259;28;20034;-59
2021/03/11 02:57:51;;;;;;;11.88;5.78;;;7.30;99.90;;;;;;5016277;28;20453;-60
2021/03/11 03:00:17;;;;;;;8.73;5.38;;;7.30;99.90;;;;;;5018101;28;20040;-58
2021/03/11 03:02:44;;;;;;;8.45;4.88;;;7.40;99.90;;;;;;4987837;28;20068;-60
2021/03/11 03:05:16;;;;;;;8.02;4.80;;;7.40;99.90;;;;;;5018142;28;20034;-60
2021/03/11 03:07:46;;;;;;;12.75;6.22;;;7.40;99.90;;;;;;5007165;28;20038;-60
2021/03/11 03:10:14;;;;;;;10.13;4.85;;;7.40;99.90;;;;;;5004369;28;20450;-61
2021/03/11 03:12:40;;;;;;;7.95;4.57;;;7.40;99.90;;;;;;5003549;28;20505;-60
2021/03/11 03:15:08;;;;;;;9.63;4.70;;;7.40;99.90;;;;;;5012585;28;20110;-61
2021/03/11 03:17:34;;;;;;;6.55;4.25;;;7.40;99.90;;;;;;4998128;28;20725;-60
2021/03/11 03:20:04;;;;;;;9.07;4.82;;;7.40;99.90;;;;;;5000069;28;20443;-59
2021/03/11 03:22:30;;;;;;;6.95;4.40;;;7.40;99.90;;;;;;4997348;28;20514;-59
2021/03/11 03:24:56;;;;;;;10.70;4.60;;;7.40;99.90;;;;;;5015320;28;20041;-59
2021/03/11 03:27:22;;;;;;;7.32;4.20;;;7.40;99.90;;;;;;4990169;28;20038;-59
2021/03/11 03:29:48;;;;;;;7.57;4.90;;;7.40;99.90;;;;;;5003964;28;20026;-58
2021/03/11 03:32:14;;;;;;;6.03;4.00;;;7.50;99.90;;;;;;5003474;28;20030;-60
2021/03/11 03:34:39;;;;;;;9.63;4.95;;;7.50;99.90;;;;;;5001534;28;20036;-58
2021/03/11 03:37:05;;;;;;;5.72;3.92;;;7.50;99.90;;;;;;5012439;28;20120;-59
2021/03/11 03:39:31;;;;;;;6.93;4.50;;;7.40;99.90;;;;;;4987393;28;20050;-61
2021/03/11 03:41:57;;;;;;;7.63;4.90;;;7.50;99.90;;;;;;5013738;28;20446;-60
2021/03/11 03:44:29;;;;;;;7.68;4.10;;;7.50;99.90;;;;;;5013206;28;20029;-60
2021/03/11 03:46:56;;;;;;;8.82;4.70;;;7.50;99.90;;;;;;5008019;28;20025;-62
2021/03/11 03:49:23;;;;;;;9.02;4.68;;;7.50;99.90;;;;;;5013231;28;20030;-60
2021/03/11 03:51:53;;;;;;;9.48;4.40;;;7.50;99.90;;;;;;5014804;28;20030;-59
2021/03/11 03:54:26;;;;;;;6.35;4.72;;;7.50;99.90;;;;;;5006588;28;20434;-61
2021/03/11 03:57:01;;;;;;;6.78;4.22;;;7.50;99.90;;;;;;5000806;28;20427;-59
2021/03/11 03:59:31;;;;;;;9.40;4.53;;;7.50;99.90;;;;;;5012979;28;20059;-61
2021/03/11 04:01:57;;;;;;;8.50;4.55;;;7.40;99.90;;;;;;5006520;28;20065;-59
2021/03/11 04:04:27;;;;;;;8.15;5.00;;;7.40;99.90;;;;;;5014955;28;20027;-59
2021/03/11 04:06:54;;;;;;;7.05;4.32;;;7.30;99.90;;;;;;5010324;28;20026;-60
2021/03/11 04:09:22;;;;;;;10.13;5.05;;;7.30;99.90;;;;;;4984418;28;20504;-61
2021/03/11 04:11:49;;;;;;;6.50;4.25;;;7.30;99.90;;;;;;5020683;28;20054;-58
2021/03/11 04:14:17;;;;;;;8.68;5.05;;;7.20;99.90;;;;;;5009975;28;20108;-60
2021/03/11 04:16:43;;;;;;;7.55;4.47;;;7.20;99.90;;;;;;5009935;28;20037;-60
2021/03/11 04:19:10;;;;;;;6.28;4.25;;;7.10;99.90;;;;;;4974825;28;20034;-60
2021/03/11 04:21:36;;;;;;;9.30;5.13;;;7.00;99.90;;;;;;4994826;28;20488;-61
2021/03/11 04:24:03;;;;;;;10.73;5.78;;;7.00;99.90;;;;;;5008489;28;20018;-60
2021/03/11 04:26:30;;;;;;;10.38;5.90;;;7.00;99.90;;;;;;4999500;28;20502;-59
2021/03/11 04:28:56;;;;;;;11.20;4.45;;;7.00;99.90;;;;;;5014311;28;20060;-62
2021/03/11 04:31:22;;;;;;;7.30;4.22;;;7.00;99.90;;;;;;5009049;28;20069;-61
2021/03/11 04:33:48;;;;;;;6.90;4.18;;;7.00;99.90;;;;;;4999817;28;20126;-61
2021/03/11 04:36:14;;;;;;;6.88;4.35;;;7.10;99.90;;;;;;5019495;28;20587;-61
2021/03/11 04:38:40;;;;;;;9.23;5.22;;;7.10;99.90;;;;;;4994917;28;20573;-61
2021/03/11 04:41:06;;;;;;;7.50;4.07;;;7.20;99.90;;;;;;5014230;28;20030;-58
2021/03/11 04:43:34;;;;;;;7.53;4.07;;;7.20;99.90;;;;;;5027356;28;20483;-57
2021/03/11 04:46:00;;;;;;;5.90;3.95;;;7.30;99.90;;;;;;4999861;28;20072;-64
2021/03/11 04:48:26;;;;;;;5.97;4.35;;;7.30;99.90;;;;;;5010919;28;20100;-57
2021/03/11 04:50:53;;;;;;;5.88;3.60;;;7.30;99.90;;;;;;5008716;28;20036;-59
2021/03/11 04:53:21;;;;;;;6.22;3.90;;;7.40;99.90;;;;;;5012134;28;20510;-59
2021/03/11 04:55:47;;;;;;;5.03;3.53;;;7.40;99.90;;;;;;5010151;28;20503;-59
2021/03/11 04:58:13;;;;;;;6.57;3.60;;;7.40;99.90;;;;;;5007952;28;20034;-61
2021/03/11 05:00:41;;;;;;;3.75;2.90;;;7.40;99.90;;;;;;5002457;28;20049;-60
2021/03/11 05:03:09;;;;;;;5.90;3.47;;;7.40;99.90;;;;;;5008126;28;20026;-60
2021/03/11 05:05:37;;;;;;;5.53;3.00;;;7.40;99.90;;;;;;5022091;28;20406;-61
2021/03/11 05:08:04;;;;;;;4.28;2.78;;;7.50;99.90;;;;;;5011608;28;20088;-57
2021/03/11 05:10:29;;;;;;;2.85;2.13;;;7.50;99.90;;;;;;5019569;28;20091;-61
2021/03/11 05:12:55;;;;;;;5.22;2.80;;;7.50;99.90;;;;;;4981358;28;20450;-61
2021/03/11 05:15:21;;;;;;;4.28;2.55;;;7.50;99.90;;;;;;5009062;28;20083;-61
2021/03/11 05:17:47;;;;;;;4.38;2.42;;;7.50;99.90;;;;;;5005319;28;20091;-59
2021/03/11 05:20:13;;;;;;;3.90;2.38;;;7.60;99.90;;;;;;5010951;28;20046;-60
2021/03/11 05:22:40;;;;;;;2.78;1.90;;;7.60;99.90;;;;;;5010497;28;20037;-61
2021/03/11 05:25:07;;;;;;;4.13;2.47;;;7.60;99.90;;;;;;5013217;28;20021;-59
2021/03/11 05:27:33;;;;;;;3.63;2.20;;;7.60;99.90;;;;;;5014022;28;20033;-60
2021/03/11 05:29:58;;;;;;;3.33;2.15;;;7.60;99.90;;;;;;5011629;28;20033;-60
2021/03/11 05:32:24;;;;;;;2.85;1.80;;;7.70;99.90;;;;;;5004747;28;20042;-59
2021/03/11 05:34:49;;;;;;;3.33;2.10;;;7.70;99.90;;;;;;5008175;28;20430;-60
2021/03/11 05:37:15;;;;;;;4.03;1.85;;;7.70;99.90;;;;;;5014338;28;20030;-60
2021/03/11 05:39:41;;;;;;;3.75;2.33;;;7.70;99.90;;;;;;4988599;28;20053;-59
2021/03/11 05:42:10;;;;;;;2.38;1.58;;;7.80;99.90;;;;;;4997715;28;20508;-60
2021/03/11 05:44:38;;;;;;;3.53;2.05;;;7.80;99.90;;;;;;5017208;28;20018;-61
2021/03/11 05:47:05;;;;;;;3.40;1.85;;;7.80;99.90;;;;;;5014994;28;20033;-60
2021/03/11 05:49:32;;;;;;;3.38;1.73;;;7.80;99.90;;;;;;5004621;28;20026;-59
2021/03/11 05:51:58;;;;;;;2.75;1.75;;;7.80;99.90;;;;;;5009694;28;20060;-59
2021/03/11 05:54:23;;;;;;;2.92;2.05;;;7.90;99.90;;;;;;5009970;28;20065;-59
2021/03/11 05:56:49;;;;;;;2.65;1.77;;;7.90;99.90;;;;;;5005438;28;20109;-60
2021/03/11 05:59:16;;;;;;;2.58;2.10;;;7.90;99.90;;;;;;5008574;28;20040;-58
2021/03/11 06:01:42;;;;;;;3.33;2.10;;;7.90;99.90;;;;;;5013690;28;20117;-60
2021/03/11 06:04:08;;;;;;;2.30;1.73;;;7.90;99.90;;;;;;5007962;28;20132;-59
2021/03/11 06:06:34;;;;;;;3.28;1.90;;;7.90;99.90;;;;;;4960579;28;20033;-60
2021/03/11 06:09:01;;;;;;;2.35;1.92;;;7.90;99.90;;;;;;5012775;28;20642;-60
2021/03/11 06:11:27;;;;;;;4.20;2.35;;;7.90;99.90;;;;;;5014835;28;20381;-61
2021/03/11 06:13:54;;;;;;;3.15;2.10;;;7.90;99.90;;;;;;5008209;28;20053;-60
2021/03/11 06:16:24;;;;;;;3.55;2.03;;;7.80;99.90;;;;;;5009606;28;20495;-61
2021/03/11 06:18:51;;;;;;;3.50;2.33;;;7.80;99.90;;;;;;5011395;28;20031;-59
2021/03/11 06:21:18;;;;;;;3.42;2.17;;;7.80;99.90;;;;;;5019725;28;20030;-60
2021/03/11 06:23:44;;;;;;;2.92;2.33;;;7.80;99.90;;;;;;5006881;28;20094;-60
2021/03/11 06:26:12;;;;;;;2.72;2.20;;;7.80;99.90;;;;;;5013122;28;20483;-60
2021/03/11 06:28:47;;;;;;;3.30;2.33;;;7.80;99.90;;;;;;5016097;28;20060;-60
2021/03/11 06:31:18;;;;;;;3.72;2.15;;;7.80;99.90;;;;;;5006665;28;20546;-60
2021/03/11 06:33:44;;;;;;;3.35;2.30;;;7.90;99.90;;;;;;5007259;28;20022;-61
2021/03/11 06:36:13;;;;;;;3.42;2.42;;;7.90;99.90;;;;;;5009308;28;20120;-61
2021/03/11 06:38:39;;;;;;;3.80;2.25;;;7.90;99.90;;;;;;4994236;28;20022;-59
2021/03/11 06:41:05;;;;;;;2.58;2.03;;;7.90;99.90;;;;;;5005616;28;20044;-59
2021/03/11 06:43:31;;;;;;;3.42;2.35;;;7.90;99.90;;;;;;5008628;28;20021;-60
2021/03/11 06:46:07;;;;;;;3.15;1.80;;;8.00;99.90;;;;;;5007718;28;20076;-60
2021/03/11 06:48:33;;;;;;;3.67;2.05;;;8.00;99.90;;;;;;5009555;28;20113;-59
2021/03/11 06:51:00;;;;;;;3.15;2.20;;;8.00;99.90;;;;;;5002657;28;20105;-60
2021/03/11 06:53:27;;;;;;;4.10;2.22;;;8.10;99.90;;;;;;5017605;28;20076;-60
2021/03/11 06:55:52;;;;;;;3.40;2.35;;;8.10;99.90;;;;;;5007173;28;20443;-60
2021/03/11 06:58:19;;;;;;;3.00;2.15;;;8.10;99.90;;;;;;5002296;28;20030;-60
2021/03/11 07:00:46;;;;;;;4.15;1.90;;;8.10;99.90;;;;;;5011383;28;20037;-60
2021/03/11 07:03:12;;;;;;;2.22;1.67;;;8.20;99.90;;;;;;5010407;28;20116;-60
2021/03/11 07:05:40;;;;;;;2.25;1.67;;;8.20;99.90;;;;;;5018949;28;20033;-61
2021/03/11 07:08:17;;;;;;;3.38;2.05;;;8.30;99.90;;;;;;5012041;28;20033;-60
2021/03/11 07:10:47;;;;;;;2.63;1.80;;;8.30;99.90;;;;;;5011224;28;20125;-60
2021/03/11 07:13:13;;;;;;;2.47;1.63;;;8.30;99.90;;;;;;5012433;28;20029;-60
2021/03/11 07:15:40;;;;;;;2.75;1.60;;;8.40;99.90;;;;;;5014522;28;20120;-60
2021/03/11 07:18:10;;;;;;;2.47;1.70;;;8.40;99.90;;;;;;5010114;28;20025;-60
2021/03/11 07:20:36;;;;;;;2.72;1.30;;;8.40;99.90;;;;;;5019825;28;20072;-61
2021/03/11 07:23:14;;;;;;;2.08;1.40;;;8.40;99.90;;;;;;5013051;28;20026;-60
2021/03/11 07:25:47;;;;;;;2.40;1.35;;;8.50;99.90;;;;;;5021382;28;20040;-59
2021/03/11 07:28:23;;;;;;;2.45;1.70;;;8.40;99.90;;;;;;5019855;28;20112;-57
2021/03/11 07:30:53;;;;;;;2.30;1.63;;;8.50;99.90;;;;;;5004307;28;20057;-60
2021/03/11 07:33:20;;;;;;;1.60;1.25;;;8.50;99.90;;;;;;5018077;28;20124;-61
2021/03/11 07:35:52;;;;;;;2.55;1.20;;;8.50;99.90;;;;;;5014628;28;20022;-60
2021/03/11 07:38:19;;;;;;;2.03;1.17;;;8.60;99.90;;;;;;5021830;28;20107;-60
2021/03/11 07:40:47;;;;;;;2.90;1.58;;;8.60;99.90;;;;;;4970688;28;20532;-60
2021/03/11 07:43:16;;;;;;;2.25;1.50;;;8.60;99.90;;;;;;4997197;28;20065;-60
2021/03/11 07:45:43;;;;;;;1.65;1.15;;;8.60;99.90;;;;;;4996747;28;20459;-60
2021/03/11 07:48:12;;;;;;;1.60;1.10;;;8.60;99.90;;;;;;5005465;28;20053;-59
2021/03/11 07:50:39;;;;;;;2.33;1.40;;;8.70;99.90;;;;;;5012852;28;20036;-60
2021/03/11 07:53:06;;;;;;;1.83;1.38;;;8.70;99.90;;;;;;5015620;28;20140;-61
2021/03/11 07:55:32;;;;;;;1.85;1.15;;;8.70;99.90;;;;;;5017718;28;20034;-61
2021/03/11 07:58:03;;;;;;;3.85;1.25;;;8.70;99.90;;;;;;5007153;28;20029;-60
2021/03/11 08:00:29;;;;;;;4.22;1.23;;;8.70;99.90;;;;;;5011423;28;20060;-61
2021/03/11 08:03:27;;;;;;;1.67;1.10;;;8.70;99.90;;;;;;5010801;28;20033;-60
2021/03/11 08:05:52;;;;;;;2.65;1.00;;;8.70;99.90;;;;;;5007103;28;20534;-60
2021/03/11 08:08:19;;;;;;;3.67;1.30;;;8.80;99.90;;;;;;5008950;28;20034;-59
2021/03/11 08:10:48;;;;;;;1.65;1.20;;;8.80;99.90;;;;;;5021245;28;20498;-60
2021/03/11 08:13:31;;;;;;;1.60;1.17;;;8.80;99.90;;;;;;5016060;28;20057;-60
2021/03/11 08:16:24;;;;;;;1.50;1.00;;;8.90;99.90;;;;;;5007472;28;20030;-60
2021/03/11 08:18:52;;;;;;;2.25;1.33;;;9.10;99.90;;;;;;4999614;28;20038;-62
2021/03/11 08:21:24;;;;;;;1.65;1.20;;;9.30;99.90;;;;;;5010232;28;20034;-60
2021/03/11 08:23:51;;;;;;;2.28;1.48;;;9.50;99.90;;;;;;5017087;28;20068;-58
2021/03/11 08:26:38;;;;;;;1.75;1.27;;;9.50;99.90;;;;;;5012287;28;20026;-59
2021/03/11 08:29:15;;;;;;;2.03;1.40;;;9.50;99.90;;;;;;5011889;28;20026;-61
2021/03/11 08:31:41;;;;;;;4.22;1.48;;;9.60;99.90;;;;;;5010741;28;20039;-59
2021/03/11 08:34:07;;;;;;;1.65;1.20;;;9.50;99.90;;;;;;5012922;28;20053;-62
2021/03/11 08:36:39;;;;;;;3.38;1.50;;;9.50;99.90;;;;;;5009188;28;20064;-61
2021/03/11 08:39:25;;;;;;;2.97;1.45;;;9.50;99.90;;;;;;5000921;28;20062;-59
2021/03/11 08:41:51;;;;;;;7.25;1.40;;;9.50;99.90;;;;;;5006270;28;20152;-61
2021/03/11 08:44:44;;;;;;;3.17;1.65;;;9.40;99.90;;;;;;5023579;28;20531;-60
2021/03/11 08:47:10;;;;;;;2.47;1.58;;;9.50;99.90;;;;;;5012556;28;20045;-62
2021/03/11 08:49:38;;;;;;;2.65;1.75;;;9.60;99.90;;;;;;5022698;28;20044;-60
2021/03/11 08:52:05;;;;;;;3.10;1.85;;;9.70;99.90;;;;;;5013270;28;20036;-61
2021/03/11 08:54:30;;;;;;;2.25;1.73;;;9.70;99.90;;;;;;5011667;28;20049;-62
2021/03/11 08:56:56;;;;;;;4.15;2.15;;;9.90;99.90;;;;;;4996856;28;20097;-62
2021/03/11 08:59:41;;;;;;;3.05;1.77;;;9.90;99.90;;;;;;5018568;28;20113;-60
2021/03/11 09:02:29;;;;;;;3.50;2.00;;;9.90;99.90;;;;;;5007408;28;20034;-59
2021/03/11 09:04:54;;;;;;;3.85;2.10;;;9.90;99.90;;;;;;5016344;28;20030;-61
2021/03/11 09:07:35;;;;;;;7.10;2.42;;;10.00;99.90;;;;;;5016544;28;20598;-61
2021/03/11 09:10:02;;;;;;;3.85;2.33;;;10.00;99.90;;;;;;5020453;28;20022;-59
2021/03/11 09:12:37;;;;;;;3.83;2.33;;;10.00;99.90;;;;;;5019544;28;20036;-61
2021/03/11 09:15:08;;;;;;;3.80;1.85;;;10.10;99.90;;;;;;5011696;28;20037;-61
2021/03/11 09:17:36;;;;;;;4.47;2.25;;;10.00;99.90;;;;;;5006024;28;20042;-60
2021/03/11 09:20:06;;;;;;;3.33;2.22;;;10.00;99.90;;;;;;5021302;28;20134;-60
2021/03/11 09:22:46;;;;;;;5.75;2.58;;;10.00;99.90;;;;;;5019589;28;20034;-60
2021/03/11 09:25:20;;;;;;;5.03;2.65;;;10.00;99.90;;;;;;5016945;28;20041;-60
2021/03/11 09:28:00;;;;;;;3.85;2.72;;;10.00;99.90;;;;;;5007477;28;20021;-59
2021/03/11 09:30:37;;;;;;;3.22;2.05;;;9.90;99.90;;;;;;5010646;28;20109;-61
2021/03/11 09:33:14;;;;;;;4.68;2.38;;;9.90;99.90;;;;;;5009873;28;20038;-60
2021/03/11 09:35:40;;;;;;;4.05;2.03;;;9.80;99.90;;;;;;5022799;28;20034;-60
2021/03/11 09:38:07;;;;;;;2.78;1.83;;;9.80;99.90;;;;;;5013126;28;20104;-60
2021/03/11 09:40:40;;;;;;;6.15;2.13;;;9.90;99.90;;;;;;4992856;28;20073;-56
2021/03/11 09:43:06;;;;;;;4.55;2.15;;;10.00;99.90;;;;;;5018689;28;20041;-60
2021/03/11 09:45:43;;;;;;;6.00;2.25;;;10.00;99.90;;;;;;5002716;28;20026;-60
2021/03/11 09:48:32;;;;;;;3.25;2.00;;;10.10;99.90;;;;;;5006985;28;20495;-59
2021/03/11 09:51:03;;;;;;;3.40;1.80;;;10.20;99.90;;;;;;5004625;28;20080;-61
2021/03/11 09:53:35;;;;;;;3.13;1.52;;;10.20;99.90;;;;;;5011166;28;20426;-58
2021/03/11 09:56:01;;;;;;;3.83;2.22;;;10.20;99.90;;;;;;5005197;28;20034;-58
2021/03/11 09:58:27;;;;;;;3.47;1.40;;;10.20;99.90;;;;;;5010415;28;20499;-59
2021/03/11 10:00:53;;;;;;;5.90;1.60;;;10.20;99.90;;;;;;4998531;28;20363;-61
2021/03/11 10:03:27;;;;;;;8.50;1.25;;;10.30;99.90;;;;;;5004041;28;20058;-60
2021/03/11 10:06:02;;;;;;;7.75;1.60;;;10.40;99.90;;;;;;5020963;28;20014;-60
2021/03/11 10:08:38;;;;;;;7.55;2.10;;;10.40;99.90;;;;;;5013845;28;20432;-61
2021/03/11 10:11:18;;;;;;;7.75;2.03;;;10.40;99.90;;;;;;5002653;28;20022;-60
2021/03/11 10:13:53;;;;;;;9.88;3.72;;;10.30;99.90;;;;;;5000515;28;20069;-61
2021/03/11 10:16:40;;;;;;;10.50;3.97;;;10.20;99.90;;;;;;5000037;28;20027;-60
2021/03/11 10:19:12;;;;;;;8.63;2.28;;;10.00;99.90;;;;;;4980404;28;20045;-60
2021/03/11 10:21:52;;;;;;;7.15;3.85;;;10.00;99.90;;;;;;5009019;28;20108;-61
2021/03/11 10:24:33;;;;;;;11.40;3.55;;;10.10;99.90;;;;;;5010701;28;20033;-60
2021/03/11 10:26:59;;;;;;;10.45;2.95;;;10.20;99.90;;;;;;5017994;28;20030;-62
2021/03/11 10:29:29;;;;;;;7.97;2.85;;;10.20;99.90;;;;;;5016893;28;20029;-59
2021/03/11 10:32:03;;;;;;;5.25;1.73;;;10.20;99.90;;;;;;5008622;28;20029;-60
2021/03/11 10:34:29;;;;;;;11.15;3.65;;;10.30;99.90;;;;;;5010655;28;20041;-63
2021/03/11 10:37:00;;;;;;;14.32;2.10;;;10.40;99.90;;;;;;5021639;28;20510;-61
2021/03/11 10:39:27;;;;;;;7.53;2.60;;;10.70;99.90;;;;;;4987998;28;20053;-59
2021/03/11 10:42:02;;;;;;;7.07;2.00;;;11.00;99.90;;;;;;5018820;28;20123;-61
2021/03/11 10:44:35;;;;;;;6.50;1.77;;;11.30;99.90;;;;;;5007280;28;20033;-59
2021/03/11 10:47:14;;;;;;;6.03;2.15;;;11.40;99.90;;;;;;5022990;28;20491;-60
2021/03/11 10:49:42;;;;;;;7.40;1.92;;;11.70;99.90;;;;;;5014056;28;20034;-60
2021/03/11 10:52:08;;;;;;;6.45;1.80;;;11.80;99.90;;;;;;5015374;28;20022;-60
2021/03/11 10:54:34;;;;;;;6.82;2.03;;;12.00;99.90;;;;;;5006728;28;20069;-60
2021/03/11 10:57:11;;;;;;;3.45;1.42;;;12.10;99.90;;;;;;5009759;28;20118;-60
2021/03/11 10:59:49;;;;;;;4.15;1.13;;;12.30;99.90;;;;;;5019722;28;20021;-61
2021/03/11 11:02:15;;;;;;;5.50;2.03;;;12.30;99.90;;;;;;5013022;28;20081;-61
2021/03/11 11:04:42;;;;;;;8.07;2.53;;;12.10;99.90;;;;;;5024308;28;20100;-61
2021/03/11 11:07:08;;;;;;;8.80;2.22;;;12.10;99.90;;;;;;5014207;28;20101;-61
2021/03/11 11:09:34;;;;;;;5.75;1.45;;;12.30;99.90;;;;;;5005998;28;20428;-62
2021/03/11 11:12:00;;;;;;;10.23;2.03;;;12.60;99.90;;;;;;5001893;28;20108;-61
2021/03/11 11:14:25;;;;;;;6.70;2.60;;;12.80;99.90;;;;;;5007584;28;20152;-61
2021/03/11 11:16:51;;;;;;;8.30;2.33;;;12.90;99.90;;;;;;5003219;28;20048;-60
2021/03/11 11:19:16;;;;;;;7.97;1.73;;;13.10;99.90;;;;;;5018639;28;20065;-60
2021/03/11 11:21:42;;;;;;;3.83;1.63;;;13.30;99.90;;;;;;5020662;28;20040;-60
2021/03/11 11:24:08;;;;;;;5.35;1.67;;;13.40;99.90;;;;;;5006026;28;20032;-59
2021/03/11 11:26:33;;;;;;;9.40;2.45;;;13.50;99.90;;;;;;5004668;28;20034;-60
2021/03/11 11:28:59;;;;;;;8.57;1.80;;;13.60;99.90;;;;;;5002394;28;20057;-60
2021/03/11 11:31:25;;;;;;;3.10;1.30;;;13.50;99.90;;;;;;4993896;28;20026;-61
2021/03/11 11:33:51;;;;;;;7.25;1.88;;;13.50;99.90;;;;;;5001087;28;20041;-62
2021/03/11 11:36:16;;;;;;;6.35;1.67;;;13.60;99.90;;;;;;5003495;28;20037;-61
2021/03/11 11:38:42;;;;;;;8.77;2.42;;;13.40;99.90;;;;;;5004941;28;20494;-62
2021/03/11 11:41:08;;;;;;;7.57;1.83;;;13.20;99.40;;;;;;4986905;28;20052;-62
2021/03/11 11:43:33;;;;;;;11.63;2.10;;;13.20;99.80;;;;;;5004247;28;20387;-61
2021/03/11 11:45:59;;;;;;;9.10;1.60;;;13.40;99.30;;;;;;5007727;28;20034;-60
2021/03/11 11:48:24;;;;;;;9.02;1.30;;;13.80;97.60;;;;;;5007272;28;20037;-62
2021/03/11 11:50:53;;;;;;;9.68;1.98;;;14.10;97.50;;;;;;5005263;28;20014;-61
2021/03/11 11:53:20;;;;;;;8.93;1.95;;;14.40;97.30;;;;;;5001267;28;20088;-67
2021/03/11 11:55:45;;;;;;;5.80;1.48;;;14.50;95.30;;;;;;5005047;28;20056;-62
2021/03/11 11:58:11;;;;;;;6.80;1.80;;;14.60;95.90;;;;;;5007279;28;20480;-62
2021/03/11 12:00:37;;;;;;;10.20;1.80;;;14.60;95.10;;;;;;5004337;28;20491;-59
2021/03/11 12:03:03;;;;;;;11.85;2.47;;;14.60;95.50;;;;;;5001734;28;20037;-61
2021/03/11 12:05:28;;;;;;;7.72;2.03;;;14.20;94.10;;;;;;5008790;28;20048;-62
2021/03/11 12:07:54;;;;;;;13.88;3.10;;;14.00;93.70;;;;;;5004978;28;20030;-61
2021/03/11 12:10:20;;;;;;;7.95;2.10;;;14.00;93.00;;;;;;5007116;28;20025;-61
2021/03/11 12:12:45;;;;;;;8.60;2.47;;;14.20;93.80;;;;;;5016555;28;20053;-62
2021/03/11 12:15:11;;;;;;;11.65;2.13;;;14.20;93.00;;;;;;5011998;28;20025;-61
2021/03/11 12:17:36;;;;;;;12.40;2.22;;;14.30;92.10;;;;;;5011461;28;20438;-61
2021/03/11 12:20:03;;;;;;;7.43;2.08;;;14.50;92.40;;;;;;5012705;28;20129;-61
2021/03/11 12:22:29;;;;;;;11.77;2.63;;;14.60;91.00;;;;;;5021814;28;20543;-63
2021/03/11 12:24:55;;;;;;;11.32;2.60;;;14.60;90.90;;;;;;5024755;28;20044;-61
2021/03/11 12:27:24;;;;;;;17.90;2.85;;;14.30;90.00;;;;;;5022296;28;20136;-62
2021/03/11 12:29:53;;;;;;;10.70;2.38;;;14.20;92.10;;;;;;5011476;28;20106;-62
2021/03/11 12:32:20;;;;;;;11.27;2.67;;;14.40;91.10;;;;;;5008493;28;20037;-63
2021/03/11 12:34:46;;;;;;;11.40;2.50;;;14.40;91.30;;;;;;5025162;28;20026;-62
2021/03/11 12:37:12;;;;;;;10.02;2.85;;;14.30;91.50;;;;;;5018549;28;20026;-61
2021/03/11 12:39:38;;;;;;;12.38;2.50;;;14.40;91.70;;;;;;5010643;28;20081;-60
2021/03/11 12:42:04;;;;;;;8.20;2.45;;;14.20;91.50;;;;;;5014748;28;20028;-62
2021/03/11 12:44:30;;;;;;;14.75;3.40;;;14.00;90.80;;;;;;5020095;28;20030;-62
2021/03/11 12:46:57;;;;;;;9.38;2.03;;;14.10;92.00;;;;;;5007757;28;20053;-61
2021/03/11 12:49:22;;;;;;;10.15;2.65;;;14.10;91.30;;;;;;5009534;28;20408;-62
2021/03/11 12:51:48;;;;;;;11.25;3.85;;;14.20;92.50;;;;;;5014774;28;20025;-62
2021/03/11 12:54:14;;;;;;;17.80;2.55;;;14.10;93.00;;;;;;4991292;28;20065;-61